DAAJ

Djanet Inedbirene Airport

Djanet, Algeria
METAR DAAJ 191300Z 27004KT 9999 FEW046 32/11 Q1019
Observed Flight Rules
Sep-19 @ 13:00 UTC (39 minutes ago) Visual Flight Rules
Wind Visibility Clouds
270° at 4 knots 10,000+ meters
  • Few at 4,600' AGL
Temperatures Readings
Current 32°C / 90°F
Dewpoint 11°C / 52°F
Humidity 27%
Altimeter 30.09" Hg
Pressure 1019 hPa
Elevation 968
METAR DAAJ 191300Z 27004KT 9999 FEW046 32/11 Q1019
Observed Flight Rules
Sep-19 @ 13:00 UTC
(39 minutes ago)
VFR
Wind Visibility
270° at 4 knots 10,000+ meters
Clouds
  • Few at 4,600' AGL
Temperature Dewpoint
32°C / 90°F 11°C / 52°F
Humidity Altimeter Pressure
27% 30.09" Hg 1019 hPa